CheckWX is a tool to help pilots better visualize weather data.  It is not intended as a substitute for an official pre-flight weather briefing.

18:03:17 UTC

KGPT METAR
Gulfport-Biloxi International Airport
Gulfport, Mississippi, USA
Current

10 mins ago

KGPT 171753Z 18007KT 10SM BKN005 OVC013 23/21 A2984 RMK AO2 SLP102 T02280206 10228 20178 58001
Observed
Feb-17 @ 17:53 UTC
Wind
  • 180° at 7 KTS
Visibility
10 SM
Flight Rules
IFR
Cloud Levels
  • Broken at 500' AGL
  • Overcast at 1,300' AGL
Temperature
23°C / 73°F
Dewpoint
21°C / 70°F
Humidity
89%
Altimeter
29.84" Hg
Pressure
1010.2 hPa
Previous

45 mins ago

KGPT 171718Z 17007KT 10SM BKN005 OVC013 22/20 A2985 RMK AO2 T02170200
Observed
Feb-17 @ 17:18 UTC
Wind
  • 170° at 7 KTS
Visibility
10 SM
Flight Rules
IFR
Cloud Levels
  • Broken at 500' AGL
  • Overcast at 1,300' AGL
Temperature
22°C / 72°F
Dewpoint
20°C / 68°F
Humidity
88%
Altimeter
29.85" Hg
Pressure
1010.82 hPa
Previous

56 mins ago

KGPT 171707Z COR 19008KT 10SM BKN005 OVC013 22/20 A2985 RMK AO2 T02170200
Observed
Feb-17 @ 17:07 UTC
Wind
  • 190° at 8 KTS
Visibility
10 SM
Flight Rules
IFR
Cloud Levels
  • Broken at 500' AGL
  • Overcast at 1,300' AGL
Temperature
22°C / 72°F
Dewpoint
20°C / 68°F
Humidity
88%
Altimeter
29.85" Hg
Pressure
1010.82 hPa